Time;durP1;ratioP1;P1;durP2;ratioP2;P2;SDS_P1;SDS_P2;PMS_P1;PMS_P2;Temp;Humidity;BMP_temperature;BMP_pressure;BME280_temperature;BME280_humidity;BME280_pressure;Samples;Min_cycle;Max_cycle;Signal;HPM_P1;HPM_P2
2023/08/02 00:02:07;;;;;;;7.65;5.68;;;;;;;14.76;100.00;95990.84;5051669;28;20299;-65
2023/08/02 00:04:34;;;;;;;7.77;5.60;;;;;;;14.72;100.00;95986.88;5051872;28;20205;-65
2023/08/02 00:07:01;;;;;;;7.40;6.23;;;;;;;14.72;100.00;95983.38;5052353;28;20198;-65
2023/08/02 00:09:28;;;;;;;5.88;5.45;;;;;;;14.71;100.00;95987.88;5051799;28;20253;-65
2023/08/02 00:11:55;;;;;;;6.60;5.82;;;;;;;14.71;100.00;95979.91;5051460;28;20624;-66
2023/08/02 00:14:22;;;;;;;6.10;5.60;;;;;;;14.67;100.00;95975.94;5052414;28;20235;-65
2023/08/02 00:16:49;;;;;;;6.32;5.72;;;;;;;14.72;100.00;95976.25;5052172;28;20210;-65
2023/08/02 00:19:15;;;;;;;8.30;5.88;;;;;;;14.69;100.00;95965.97;5051174;28;20211;-65
2023/08/02 00:21:42;;;;;;;7.45;5.80;;;;;;;14.71;100.00;95955.94;5051902;28;20211;-65
2023/08/02 00:24:08;;;;;;;6.97;5.60;;;;;;;14.72;100.00;95954.94;5051605;28;20207;-65
2023/08/02 00:26:35;;;;;;;5.75;5.35;;;;;;;14.71;100.00;95950.63;5050906;28;20686;-64
2023/08/02 00:29:04;;;;;;;6.68;6.10;;;;;;;14.69;100.00;95952.66;5051430;28;20223;-66
2023/08/02 00:31:31;;;;;;;8.02;5.80;;;;;;;14.64;100.00;95947.06;5051727;28;20207;-65
2023/08/02 00:33:58;;;;;;;7.03;6.13;;;;;;;14.62;100.00;95941.09;5050991;28;20679;-65
2023/08/02 00:36:26;;;;;;;6.07;5.47;;;;;;;14.68;100.00;95939.53;5051703;28;20207;-65
2023/08/02 00:38:52;;;;;;;9.10;5.93;;;;;;;14.54;100.00;95933.22;5049903;28;20207;-65
2023/08/02 00:41:19;;;;;;;6.50;5.93;;;;;;;14.53;100.00;95923.56;5051229;28;20207;-66
2023/08/02 00:43:47;;;;;;;7.07;6.05;;;;;;;14.53;100.00;95920.91;5050867;28;20644;-65
2023/08/02 00:46:16;;;;;;;6.57;5.97;;;;;;;14.55;100.00;95913.59;5051440;28;20290;-65
2023/08/02 00:48:45;;;;;;;8.17;6.10;;;;;;;14.54;100.00;95914.59;5050755;28;21442;-65
2023/08/02 00:51:15;;;;;;;7.90;6.28;;;;;;;14.52;100.00;95905.16;5050957;28;20306;-65
2023/08/02 00:53:42;;;;;;;6.80;6.07;;;;;;;14.51;100.00;95914.97;5051426;28;20206;-65
2023/08/02 00:56:08;;;;;;;7.50;6.15;;;;;;;14.55;100.00;95910.94;5051421;28;20203;-64
2023/08/02 00:58:34;;;;;;;6.77;6.27;;;;;;;14.54;100.00;95895.13;5050727;28;20214;-65
2023/08/02 01:01:06;;;;;;;8.57;6.00;;;;;;;14.49;100.00;95900.19;5050937;28;21128;-65
2023/08/02 01:03:35;;;;;;;7.47;6.07;;;;;;;14.44;100.00;95896.25;5051850;28;20203;-64
2023/08/02 01:06:07;;;;;;;7.43;6.07;;;;;;;14.43;100.00;95885.78;5052760;28;20195;-65
2023/08/02 01:08:36;;;;;;;6.95;6.35;;;;;;;14.41;100.00;95878.00;5051189;28;20199;-64
2023/08/02 01:11:08;;;;;;;7.10;6.03;;;;;;;14.37;100.00;95889.19;5065311;28;20203;-66
2023/08/02 01:13:37;;;;;;;6.97;5.90;;;;;;;14.38;100.00;95889.00;5067556;28;20194;-65
2023/08/02 01:16:04;;;;;;;8.20;5.38;;;;;;;14.39;100.00;95881.84;5051910;28;20231;-66
2023/08/02 01:18:31;;;;;;;7.07;5.90;;;;;;;14.41;100.00;95866.53;5050036;28;20272;-65
2023/08/02 01:20:59;;;;;;;7.30;6.60;;;;;;;14.50;100.00;95873.41;5051724;28;20249;-65
2023/08/02 01:23:26;;;;;;;6.53;6.03;;;;;;;14.48;100.00;95872.78;5053624;28;20211;-65
2023/08/02 01:25:53;;;;;;;5.70;5.30;;;;;;;14.58;100.00;95875.97;5054441;28;20234;-66
2023/08/02 01:28:23;;;;;;;6.57;5.87;;;;;;;14.60;100.00;95865.94;5062941;28;20218;-66
2023/08/02 01:30:50;;;;;;;6.77;6.07;;;;;;;14.69;100.00;95866.66;5063580;28;20205;-66
2023/08/02 01:33:17;;;;;;;6.20;5.43;;;;;;;14.74;100.00;95869.56;5055630;28;20206;-65
2023/08/02 01:35:43;;;;;;;6.50;5.87;;;;;;;14.72;100.00;95866.28;5050872;28;20227;-65
2023/08/02 01:38:12;;;;;;;6.13;5.63;;;;;;;14.71;100.00;95860.13;5050937;28;20211;-65
2023/08/02 01:40:40;;;;;;;8.25;5.97;;;;;;;14.75;100.00;95858.75;5050941;28;20198;-64
2023/08/02 01:43:07;;;;;;;7.78;5.82;;;;;;;14.81;100.00;95844.69;5050109;28;20337;-64
2023/08/02 01:45:34;;;;;;;6.40;5.75;;;;;;;14.82;100.00;95840.19;5050985;28;20203;-65
2023/08/02 01:48:01;;;;;;;7.25;6.10;;;;;;;14.85;100.00;95835.31;5049759;28;20199;-65
2023/08/02 01:50:27;;;;;;;7.07;5.90;;;;;;;14.89;100.00;95835.75;5051267;28;20207;-65
2023/08/02 01:52:54;;;;;;;7.47;5.40;;;;;;;14.95;100.00;95835.81;5050264;28;20203;-63
2023/08/02 01:55:22;;;;;;;8.60;6.13;;;;;;;14.98;100.00;95828.50;5054868;28;20694;-65
2023/08/02 01:57:48;;;;;;;7.32;6.10;;;;;;;14.99;100.00;95819.47;5053808;28;20658;-65
2023/08/02 02:00:15;;;;;;;6.30;5.80;;;;;;;15.03;100.00;95818.06;5053707;28;20273;-65
2023/08/02 02:02:41;;;;;;;5.93;5.43;;;;;;;15.05;100.00;95824.88;5053513;28;20207;-66
2023/08/02 02:05:09;;;;;;;6.40;5.60;;;;;;;15.07;100.00;95817.53;5055432;28;20261;-65
2023/08/02 02:07:35;;;;;;;6.80;5.57;;;;;;;15.12;100.00;95808.97;5058868;28;20253;-65
2023/08/02 02:10:04;;;;;;;6.78;5.90;;;;;;;15.16;100.00;95804.91;5059162;28;20195;-65
2023/08/02 02:12:31;;;;;;;6.85;6.03;;;;;;;15.18;100.00;95802.88;5059189;28;20302;-65
2023/08/02 02:15:00;;;;;;;7.40;5.82;;;;;;;15.20;100.00;95795.50;5059773;28;20262;-66
2023/08/02 02:17:26;;;;;;;7.55;6.15;;;;;;;15.19;100.00;95793.88;5057628;28;20203;-65
2023/08/02 02:19:53;;;;;;;5.80;5.28;;;;;;;15.23;100.00;95784.47;5058394;28;20202;-65
2023/08/02 02:22:19;;;;;;;6.30;5.72;;;;;;;15.23;100.00;95773.81;5057062;28;20221;-65
2023/08/02 02:24:46;;;;;;;6.13;5.63;;;;;;;15.25;100.00;95775.28;5057860;28;20206;-66
2023/08/02 02:27:13;;;;;;;6.60;5.28;;;;;;;15.29;100.00;95778.38;5055184;28;20242;-68
2023/08/02 02:29:40;;;;;;;5.63;5.15;;;;;;;15.31;100.00;95779.00;5056602;28;20208;-65
2023/08/02 02:32:07;;;;;;;7.65;5.47;;;;;;;15.35;100.00;95773.09;5055627;28;20730;-65
2023/08/02 02:34:34;;;;;;;6.78;4.90;;;;;;;15.34;100.00;95770.59;5056114;28;20231;-65
2023/08/02 02:37:00;;;;;;;5.43;5.03;;;;;;;15.34;100.00;95760.78;5054058;28;20207;-65
2023/08/02 02:39:26;;;;;;;6.40;5.80;;;;;;;15.34;100.00;95754.63;5053349;28;20775;-64
2023/08/02 02:41:53;;;;;;;5.82;5.43;;;;;;;15.40;100.00;95764.53;5053126;28;20582;-65
2023/08/02 02:44:19;;;;;;;8.60;6.00;;;;;;;15.41;100.00;95763.50;5053683;28;20211;-66
2023/08/02 02:46:47;;;;;;;5.90;5.40;;;;;;;15.43;100.00;95772.97;5052776;28;20211;-65
2023/08/02 02:49:14;;;;;;;6.60;6.07;;;;;;;15.42;100.00;95773.97;5053588;28;20199;-65
2023/08/02 02:51:40;;;;;;;7.15;6.45;;;;;;;15.45;100.00;95768.25;5053488;28;20289;-65
2023/08/02 02:54:07;;;;;;;7.90;7.10;;;;;;;15.45;100.00;95762.09;5053833;28;20225;-65
2023/08/02 02:56:33;;;;;;;8.63;6.75;;;;;;;15.45;100.00;95756.75;5052773;28;20881;-65
2023/08/02 02:59:00;;;;;;;7.20;6.60;;;;;;;15.45;100.00;95756.75;5053324;28;20542;-65
2023/08/02 03:01:26;;;;;;;6.60;6.00;;;;;;;15.47;100.00;95759.25;5053281;28;20290;-66
2023/08/02 03:03:54;;;;;;;6.45;5.75;;;;;;;15.48;100.00;95744.91;5051875;28;20214;-65
2023/08/02 03:06:21;;;;;;;6.95;6.35;;;;;;;15.51;100.00;95740.03;5052431;28;20214;-65
2023/08/02 03:08:47;;;;;;;7.15;5.97;;;;;;;15.47;100.00;95733.44;5052764;28;20329;-65
2023/08/02 03:11:14;;;;;;;6.47;5.80;;;;;;;15.47;100.00;95728.09;5053051;28;20226;-66
2023/08/02 03:13:40;;;;;;;6.57;5.97;;;;;;;15.50;100.00;95724.25;5052399;28;20199;-66
2023/08/02 03:16:07;;;;;;;7.28;5.45;;;;;;;15.51;100.00;95723.22;5053240;28;20276;-65
2023/08/02 03:18:33;;;;;;;6.65;6.05;;;;;;;15.52;100.00;95727.56;5052340;28;20202;-66
2023/08/02 03:21:03;;;;;;;7.55;5.80;;;;;;;15.56;100.00;95718.13;5053300;28;20195;-65
2023/08/02 03:23:30;;;;;;;7.00;6.30;;;;;;;15.54;100.00;95728.16;5052653;28;20214;-66
2023/08/02 03:25:56;;;;;;;6.63;5.85;;;;;;;15.55;100.00;95720.00;5051967;28;20377;-65
2023/08/02 03:28:23;;;;;;;11.27;5.35;;;;;;;15.57;100.00;95717.94;5052467;28;20203;-66
2023/08/02 03:30:49;;;;;;;5.57;4.97;;;;;;;15.55;100.00;95720.00;5052833;28;21313;-65
2023/08/02 03:33:16;;;;;;;5.22;4.72;;;;;;;15.57;100.00;95717.94;5052194;28;20219;-65
2023/08/02 03:35:43;;;;;;;4.40;4.03;;;;;;;15.59;100.00;95709.75;5052821;28;20246;-65
2023/08/02 03:38:11;;;;;;;5.97;4.50;;;;;;;15.61;100.00;95703.22;5051962;28;20203;-66
2023/08/02 03:40:37;;;;;;;4.95;4.55;;;;;;;15.63;100.00;95701.16;5052805;28;20199;-65
2023/08/02 03:43:03;;;;;;;5.00;4.55;;;;;;;15.63;100.00;95706.47;5051763;28;20268;-65
2023/08/02 03:45:30;;;;;;;5.90;4.97;;;;;;;15.66;100.00;95700.75;5052620;28;20207;-65
2023/08/02 03:47:56;;;;;;;6.07;5.57;;;;;;;15.68;100.00;95697.91;5051817;28;20203;-66
2023/08/02 03:50:23;;;;;;;5.32;4.80;;;;;;;15.68;100.00;95701.41;5053164;28;20207;-66
2023/08/02 03:52:49;;;;;;;4.82;4.13;;;;;;;15.67;100.00;95689.09;5051851;28;20199;-65
2023/08/02 03:55:17;;;;;;;4.80;4.18;;;;;;;15.68;100.00;95688.06;5052689;28;20288;-65
2023/08/02 03:57:44;;;;;;;4.35;4.05;;;;;;;15.71;100.00;95686.84;5051787;28;20215;-65
2023/08/02 04:00:11;;;;;;;4.47;4.07;;;;;;;15.71;100.00;95677.00;5051353;28;20203;-65
2023/08/02 04:02:38;;;;;;;4.40;4.00;;;;;;;15.68;100.00;95680.06;5051426;28;20212;-66
2023/08/02 04:05:05;;;;;;;4.88;4.38;;;;;;;15.67;100.00;95670.44;5052056;28;20538;-65
2023/08/02 04:07:31;;;;;;;5.28;4.88;;;;;;;15.66;100.00;95674.09;5051729;28;20286;-66
2023/08/02 04:09:58;;;;;;;5.78;5.18;;;;;;;15.66;100.00;95678.63;5051643;28;20542;-65
2023/08/02 04:12:26;;;;;;;5.20;4.80;;;;;;;15.64;100.00;95672.66;5051629;28;20233;-66
2023/08/02 04:14:52;;;;;;;7.55;4.65;;;;;;;15.63;100.00;95679.84;5051548;28;20211;-66
2023/08/02 04:17:19;;;;;;;4.70;4.40;;;;;;;15.64;100.00;95665.50;5050596;28;20519;-66
2023/08/02 04:19:45;;;;;;;5.50;5.10;;;;;;;15.66;100.00;95673.31;5051232;28;20195;-65
2023/08/02 04:22:12;;;;;;;4.57;4.20;;;;;;;15.68;100.00;95669.41;5051779;28;20214;-66
2023/08/02 04:24:38;;;;;;;5.28;4.78;;;;;;;15.71;100.00;95666.34;5052091;28;20199;-66
2023/08/02 04:27:05;;;;;;;4.50;4.10;;;;;;;15.75;100.00;95674.78;5050934;28;20234;-65
2023/08/02 04:29:33;;;;;;;4.57;3.80;;;;;;;15.74;100.00;95668.63;5051874;28;20207;-66
2023/08/02 04:31:59;;;;;;;3.95;3.65;;;;;;;15.73;100.00;95674.97;5051598;28;20211;-65
2023/08/02 04:34:26;;;;;;;5.63;4.13;;;;;;;15.76;100.00;95663.91;5051348;28;20218;-65
2023/08/02 04:36:53;;;;;;;4.05;3.75;;;;;;;15.79;100.00;95657.38;5051242;28;20230;-66
2023/08/02 04:39:19;;;;;;;4.93;4.57;;;;;;;15.80;100.00;95659.81;5051148;28;20295;-65
2023/08/02 04:41:46;;;;;;;4.93;4.53;;;;;;;15.79;100.00;95652.84;5050884;28;20199;-66
2023/08/02 04:44:12;;;;;;;4.75;4.35;;;;;;;15.81;100.00;95637.47;5051610;28;20203;-64
2023/08/02 04:46:40;;;;;;;5.00;4.50;;;;;;;15.83;100.00;95638.13;5051300;28;20203;-65
2023/08/02 04:49:06;;;;;;;5.55;5.10;;;;;;;15.85;100.00;95646.72;5050582;28;20207;-65
2023/08/02 04:51:36;;;;;;;6.10;5.60;;;;;;;15.87;100.00;95643.88;5051268;28;20207;-65
2023/08/02 04:54:03;;;;;;;6.68;5.38;;;;;;;15.90;100.00;95644.28;5050988;28;20219;-65
2023/08/02 04:56:29;;;;;;;5.68;5.18;;;;;;;15.92;100.00;95646.75;5050836;28;20239;-65
2023/08/02 04:58:56;;;;;;;5.57;4.20;;;;;;;15.92;100.00;95647.56;5050587;28;20222;-65
2023/08/02 05:01:22;;;;;;;4.68;4.30;;;;;;;15.93;100.00;95649.22;5051250;28;20206;-65
2023/08/02 05:03:50;;;;;;;4.78;4.38;;;;;;;15.93;100.00;95651.88;5050610;28;20210;-66
2023/08/02 05:06:16;;;;;;;5.00;4.55;;;;;;;15.97;100.00;95643.47;5050785;28;20195;-64
2023/08/02 05:08:43;;;;;;;4.75;4.10;;;;;;;15.91;100.00;95643.25;5050734;28;20195;-64
2023/08/02 05:11:09;;;;;;;6.40;4.50;;;;;;;15.96;100.00;95647.16;5050541;28;20211;-65
2023/08/02 05:13:36;;;;;;;4.03;3.72;;;;;;;16.00;100.00;95645.75;5050938;28;20280;-65
2023/08/02 05:16:02;;;;;;;4.00;3.70;;;;;;;15.98;100.00;95635.25;5051757;28;20227;-65
2023/08/02 05:18:29;;;;;;;4.55;3.72;;;;;;;15.97;100.00;95620.31;5050514;28;20654;-64
2023/08/02 05:20:57;;;;;;;4.10;3.78;;;;;;;16.02;100.00;95625.84;5050795;28;20199;-64
2023/08/02 05:23:23;;;;;;;4.10;3.80;;;;;;;16.00;100.00;95627.06;5049630;28;20199;-65
2023/08/02 05:25:50;;;;;;;4.53;4.05;;;;;;;16.03;100.00;95634.66;5050367;28;20223;-64
2023/08/02 05:28:16;;;;;;;4.15;3.67;;;;;;;16.03;100.00;95632.00;5049107;28;20215;-65
2023/08/02 05:30:43;;;;;;;4.55;4.13;;;;;;;16.06;100.00;95627.09;5049978;28;20631;-65
2023/08/02 05:33:09;;;;;;;5.47;3.95;;;;;;;16.03;100.00;95632.84;5050104;28;20232;-65
2023/08/02 05:35:36;;;;;;;6.38;4.25;;;;;;;16.03;100.00;95629.34;5050521;28;20223;-65
2023/08/02 05:38:04;;;;;;;5.63;4.25;;;;;;;16.09;100.00;95636.53;5050209;28;20207;-65
2023/08/02 05:40:30;;;;;;;6.30;4.20;;;;;;;16.07;100.00;95646.59;5050213;28;20286;-66
2023/08/02 05:42:57;;;;;;;4.90;4.03;;;;;;;16.04;100.00;95647.81;5049543;28;20663;-66
2023/08/02 05:45:24;;;;;;;4.35;3.92;;;;;;;16.01;100.00;95650.06;5049856;28;20206;-66
2023/08/02 05:47:50;;;;;;;5.53;4.63;;;;;;;16.06;100.00;95652.94;5050595;28;20199;-65
2023/08/02 05:50:17;;;;;;;4.78;4.38;;;;;;;16.07;100.00;95651.91;5050050;28;20215;-65
2023/08/02 05:52:44;;;;;;;4.97;4.30;;;;;;;16.04;100.00;95645.16;5049381;28;20210;-64
2023/08/02 05:55:12;;;;;;;4.47;4.10;;;;;;;16.09;100.00;95650.69;5050347;28;20211;-66
2023/08/02 05:57:38;;;;;;;4.30;4.00;;;;;;;16.13;100.00;95643.94;5050277;28;20233;-64
2023/08/02 06:00:07;;;;;;;5.03;4.63;;;;;;;16.17;100.00;95645.19;5049305;28;20207;-62
2023/08/02 06:02:33;;;;;;;4.35;3.95;;;;;;;16.17;100.00;95642.50;5049649;28;20203;-64
2023/08/02 06:05:00;;;;;;;5.63;4.55;;;;;;;16.19;100.00;95658.31;5053234;28;20269;-63
2023/08/02 06:07:26;;;;;;;4.95;4.45;;;;;;;16.22;100.00;95657.91;5054357;28;20207;-64
2023/08/02 06:09:52;;;;;;;4.75;4.35;;;;;;;16.23;100.00;95664.88;5050866;28;20218;-66
2023/08/02 06:12:20;;;;;;;4.68;4.28;;;;;;;16.27;100.00;95653.59;5050240;28;20195;-62
2023/08/02 06:14:47;;;;;;;5.00;4.63;;;;;;;16.27;100.00;95650.94;5050759;28;20206;-62
2023/08/02 06:17:14;;;;;;;5.50;4.68;;;;;;;16.27;100.00;95647.44;5049700;28;20229;-62
2023/08/02 06:19:40;;;;;;;4.93;4.53;;;;;;;16.34;100.00;95656.28;5049730;28;20212;-62
2023/08/02 06:22:07;;;;;;;4.15;3.85;;;;;;;16.35;100.00;95650.75;5049813;28;20302;-61
2023/08/02 06:24:33;;;;;;;4.38;4.00;;;;;;;16.42;100.00;95654.25;5049721;28;20199;-57
2023/08/02 06:27:00;;;;;;;4.22;3.83;;;;;;;16.44;100.00;95646.84;5049668;28;20263;-57
2023/08/02 06:29:28;;;;;;;4.18;3.75;;;;;;;16.45;100.00;95647.69;5049639;28;20199;-57
2023/08/02 06:31:54;;;;;;;4.75;4.32;;;;;;;16.49;100.00;95643.59;5050510;28;20203;-57
2023/08/02 06:34:20;;;;;;;4.50;4.00;;;;;;;16.48;100.00;95636.59;5048185;28;20647;-56
2023/08/02 06:36:47;;;;;;;4.18;3.80;;;;;;;16.51;100.00;95654.88;5049251;28;20258;-58
2023/08/02 06:39:13;;;;;;;4.10;3.80;;;;;;;16.49;100.00;95640.91;5050051;28;20211;-58
2023/08/02 06:41:40;;;;;;;4.07;3.70;;;;;;;16.49;100.00;95630.25;5052514;28;20203;-56
2023/08/02 06:44:07;;;;;;;3.95;3.65;;;;;;;16.52;100.00;95618.31;5052618;28;20195;-57
2023/08/02 06:46:37;;;;;;;4.00;3.60;;;;;;;16.48;100.00;95630.44;5052603;28;20292;-59
2023/08/02 06:49:04;;;;;;;3.85;3.55;;;;;;;16.57;100.00;95634.59;5053676;28;20195;-58
2023/08/02 06:51:32;;;;;;;4.03;3.65;;;;;;;16.56;100.00;95639.09;5053282;28;20203;-58
2023/08/02 06:53:58;;;;;;;3.97;3.47;;;;;;;16.61;100.00;95625.16;5053543;28;20199;-58
2023/08/02 06:56:25;;;;;;;4.07;3.70;;;;;;;16.64;100.00;95627.41;5053034;28;20222;-57
2023/08/02 06:58:52;;;;;;;3.97;3.65;;;;;;;16.62;100.00;95627.59;5053989;28;20211;-58
2023/08/02 07:01:19;;;;;;;3.60;3.30;;;;;;;16.65;100.00;95621.06;5053393;28;20207;-59
2023/08/02 07:03:53;;;;;;;6.35;3.80;;;;;;;16.65;100.00;95615.72;5053203;28;20203;-59
2023/08/02 07:06:21;;;;;;;4.07;3.70;;;;;;;16.63;100.00;95618.56;5052188;28;20642;-59
2023/08/02 07:08:48;;;;;;;5.35;3.70;;;;;;;16.65;100.00;95615.72;5053334;28;20616;-59
2023/08/02 07:11:15;;;;;;;3.75;3.45;;;;;;;16.66;100.00;95623.50;5053224;28;20207;-58
2023/08/02 07:13:46;;;;;;;3.72;3.42;;;;;;;16.71;100.00;95615.72;5052650;28;20547;-59
2023/08/02 07:16:14;;;;;;;3.95;3.65;;;;;;;16.77;100.00;95608.72;5053132;28;20243;-59
2023/08/02 07:18:41;;;;;;;3.05;2.85;;;;;;;16.81;100.00;95610.78;5053146;28;20215;-58
2023/08/02 07:21:10;;;;;;;4.45;3.63;;;;;;;16.82;100.00;95617.75;5053638;28;20206;-58
2023/08/02 07:23:37;;;;;;;4.40;3.55;;;;;;;16.84;100.00;95612.19;5053557;28;20222;-59
2023/08/02 07:26:04;;;;;;;4.72;3.85;;;;;;;16.79;100.00;95602.13;5052161;28;20243;-59
2023/08/02 07:28:31;;;;;;;3.47;3.28;;;;;;;16.84;100.00;95604.19;5052838;28;20218;-59
2023/08/02 07:31:06;;;;;;;3.50;3.20;;;;;;;16.80;100.00;95614.47;5053919;28;20583;-58
2023/08/02 07:33:32;;;;;;;4.50;3.25;;;;;;;16.84;100.00;95610.34;5052379;28;20604;-58
2023/08/02 07:36:00;;;;;;;3.80;3.60;;;;;;;16.87;100.00;95601.94;5053146;28;20207;-58
2023/08/02 07:38:29;;;;;;;5.30;3.63;;;;;;;16.93;100.00;95601.09;5052621;28;20556;-59
2023/08/02 07:40:55;;;;;;;3.50;3.20;;;;;;;16.94;100.00;95599.25;5052685;28;20528;-61
2023/08/02 07:43:23;;;;;;;3.67;3.35;;;;;;;16.95;100.00;95590.22;5053277;28;20544;-59
2023/08/02 07:45:49;;;;;;;4.35;3.47;;;;;;;16.88;100.00;95581.38;5052693;28;20211;-58
2023/08/02 07:48:15;;;;;;;4.30;3.25;;;;;;;16.93;100.00;95587.75;5051507;28;20199;-58
2023/08/02 07:50:42;;;;;;;4.03;3.67;;;;;;;17.04;100.00;95582.81;5052768;28;20206;-59
2023/08/02 07:53:08;;;;;;;4.63;3.58;;;;;;;17.11;100.00;95575.59;5052314;28;20515;-59
2023/08/02 07:55:36;;;;;;;3.88;3.47;;;;;;;17.17;100.00;95574.75;5052497;28;20222;-58
2023/08/02 07:58:03;;;;;;;3.50;3.20;;;;;;;17.19;100.00;95560.16;5051779;28;20223;-58
2023/08/02 08:00:29;;;;;;;3.50;3.22;;;;;;;17.27;100.00;95562.59;5052742;28;20221;-58
2023/08/02 08:02:56;;;;;;;3.85;3.55;;;;;;;17.39;100.00;95554.75;5052549;28;20203;-57
2023/08/02 08:05:25;;;;;;;3.72;3.42;;;;;;;17.51;100.00;95541.53;5051530;28;20211;-58
2023/08/02 08:07:51;;;;;;;4.15;3.00;;;;;;;17.65;100.00;95543.97;5052252;28;20230;-58
2023/08/02 08:10:20;;;;;;;3.17;2.97;;;;;;;17.84;100.00;95540.38;5052578;28;20643;-59
2023/08/02 08:12:48;;;;;;;3.10;2.90;;;;;;;18.09;100.00;95540.44;5052154;28;20207;-60
2023/08/02 08:15:14;;;;;;;3.58;3.15;;;;;;;18.28;100.00;95544.00;5051792;28;20229;-58
2023/08/02 08:17:41;;;;;;;4.40;3.28;;;;;;;18.42;100.00;95531.34;5052100;28;20694;-60
2023/08/02 08:20:08;;;;;;;3.22;2.97;;;;;;;18.71;100.00;95528.00;5057465;28;20214;-59
2023/08/02 08:22:34;;;;;;;4.22;3.25;;;;;;;19.05;100.00;95523.97;5058762;28;20203;-63
2023/08/02 08:25:01;;;;;;;3.28;3.05;;;;;;;19.20;100.00;95521.75;5061653;28;20210;-61
2023/08/02 08:27:27;;;;;;;3.05;2.85;;;;;;;19.60;100.00;95517.53;5052538;28;21460;-59
2023/08/02 08:29:55;;;;;;;3.22;3.03;;;;;;;19.92;100.00;95510.09;5050768;28;20210;-58
2023/08/02 08:32:26;;;;;;;4.13;2.97;;;;;;;19.86;100.00;95511.84;5054907;28;20207;-61
2023/08/02 08:34:53;;;;;;;6.35;3.20;;;;;;;19.94;100.00;95508.00;5053659;28;20206;-59
2023/08/02 08:37:19;;;;;;;3.47;3.25;;;;;;;20.06;100.00;95505.34;5051263;28;20245;-59
2023/08/02 08:39:46;;;;;;;3.70;3.30;;;;;;;20.04;100.00;95497.53;5051390;28;20330;-59
2023/08/02 08:42:13;;;;;;;4.53;3.47;;;;;;;20.17;100.00;95483.91;5051076;28;20297;-59
2023/08/02 08:44:40;;;;;;;3.70;3.40;;;;;;;20.42;100.00;95478.38;5051631;28;20211;-59
2023/08/02 08:47:08;;;;;;;3.53;3.22;;;;;;;20.62;100.00;95484.22;5052501;28;20199;-59
2023/08/02 08:49:35;;;;;;;5.70;3.60;;;;;;;20.57;100.00;95476.06;5051057;28;20203;-60
2023/08/02 08:52:04;;;;;;;3.50;3.17;;;;;;;21.00;100.00;95485.59;5051826;28;20293;-59
2023/08/02 08:54:32;;;;;;;3.42;3.13;;;;;;;21.37;100.00;95476.19;5051677;28;20207;-59
2023/08/02 08:56:59;;;;;;;3.53;3.22;;;;;;;21.79;100.00;95485.63;5051437;28;20241;-59
2023/08/02 08:59:26;;;;;;;4.80;3.42;;;;;;;21.91;100.00;95477.53;5050679;28;20546;-59
2023/08/02 09:01:53;;;;;;;3.95;3.53;;;;;;;21.79;100.00;95468.66;5051149;28;20211;-59
2023/08/02 09:04:22;;;;;;;3.78;3.35;;;;;;;21.92;100.00;95464.91;5050446;28;20226;-60
2023/08/02 09:06:49;;;;;;;3.60;3.28;;;;;;;21.59;100.00;95466.41;5049769;28;20223;-58
2023/08/02 09:09:16;;;;;;;3.17;2.97;;;;;;;21.68;100.00;95466.88;5051309;28;20211;-60
2023/08/02 09:11:43;;;;;;;3.65;3.35;;;;;;;21.87;100.00;95448.63;5051261;28;20204;-60
2023/08/02 09:14:10;;;;;;;3.42;3.03;;;;;;;22.15;100.00;95446.72;5051074;28;20207;-59
2023/08/02 09:16:39;;;;;;;3.35;3.15;;;;;;;22.37;99.69;95430.66;5051174;28;20235;-60
2023/08/02 09:19:21;;;;;;;2.80;2.60;;;;;;;;;;5051532;28;20206;-60
2023/08/02 09:22:05;;;;;;;3.20;3.00;;;;;;;23.00;96.66;95426.72;5050375;28;20222;-59
2023/08/02 09:24:37;;;;;;;3.22;2.92;;;;;;;23.30;97.39;95421.72;5050119;28;20539;-61
2023/08/02 09:27:08;;;;;;;2.88;2.67;;;;;;;23.57;95.56;95417.19;5048711;28;20699;-60
2023/08/02 09:29:46;;;;;;;3.78;2.85;;;;;;;23.74;87.25;95414.41;5051490;28;20203;-59
2023/08/02 09:32:13;;;;;;;2.50;2.30;;;;;;;23.84;87.84;95411.81;5050966;28;20698;-60
2023/08/02 09:34:44;;;;;;;2.80;2.60;;;;;;;23.87;85.64;95411.31;5050974;28;20628;-58
2023/08/02 09:37:12;;;;;;;2.80;2.60;;;;;;;23.79;83.80;95400.97;5053099;28;20276;-59
2023/08/02 09:39:39;;;;;;;2.72;2.55;;;;;;;23.70;82.97;95403.28;5055871;28;20636;-59
2023/08/02 09:42:11;;;;;;;3.00;2.70;;;;;;;23.80;83.14;95405.31;5056055;28;20208;-60
2023/08/02 09:44:37;;;;;;;3.25;2.88;;;;;;;23.72;82.21;95403.88;5055206;28;20234;-60
2023/08/02 09:47:10;;;;;;;2.55;2.35;;;;;;;23.84;84.33;95390.22;5055828;28;20199;-60
2023/08/02 09:49:38;;;;;;;3.10;2.90;;;;;;;23.88;85.66;95393.22;5054931;28;20207;-61
2023/08/02 09:52:05;;;;;;;2.60;2.50;;;;;;;23.69;81.77;95390.06;5054536;28;20199;-60
2023/08/02 09:54:33;;;;;;;2.70;2.47;;;;;;;23.77;84.13;95390.41;5054080;28;20286;-60
2023/08/02 09:57:01;;;;;;;3.45;2.83;;;;;;;23.67;82.78;95397.59;5049457;28;20589;-64
2023/08/02 09:59:29;;;;;;;3.28;3.08;;;;;;;23.57;80.94;95395.63;5052025;28;20838;-59
2023/08/02 10:01:57;;;;;;;3.00;2.80;;;;;;;23.65;82.22;95381.66;5051359;28;20195;-60
2023/08/02 10:04:25;;;;;;;2.50;2.33;;;;;;;23.82;83.05;95376.16;5050491;28;20525;-59
2023/08/02 10:06:54;;;;;;;2.92;2.53;;;;;;;24.00;85.91;95369.56;5050448;28;20199;-61
2023/08/02 10:09:22;;;;;;;2.47;2.35;;;;;;;24.10;85.60;95372.34;5050798;28;20214;-59
2023/08/02 10:11:54;;;;;;;3.10;2.72;;;;;;;24.22;83.09;95362.19;5049049;28;20230;-59
2023/08/02 10:14:21;;;;;;;2.60;2.50;;;;;;;24.26;80.41;95356.03;5050428;28;20286;-59
2023/08/02 10:16:47;;;;;;;2.63;2.50;;;;;;;24.37;82.68;95356.91;5052957;28;20215;-59
2023/08/02 10:19:14;;;;;;;3.05;2.85;;;;;;;24.35;81.92;95353.63;5054347;28;20214;-59
2023/08/02 10:21:41;;;;;;;3.78;2.60;;;;;;;24.37;82.27;95346.09;5052986;28;20665;-59
2023/08/02 10:24:07;;;;;;;3.03;2.83;;;;;;;24.49;84.67;95344.00;5054134;28;20203;-59
2023/08/02 10:26:34;;;;;;;2.75;2.55;;;;;;;24.60;81.45;95337.59;5052939;28;20239;-61
2023/08/02 10:29:03;;;;;;;2.83;2.63;;;;;;;24.68;80.17;95333.56;5054546;28;20207;-60
2023/08/02 10:31:30;;;;;;;2.95;2.55;;;;;;;24.62;76.49;95330.00;5054016;28;20630;-59
2023/08/02 10:33:57;;;;;;;2.90;2.70;;;;;;;24.86;79.14;95332.34;5054576;28;20203;-59
2023/08/02 10:36:24;;;;;;;2.97;2.70;;;;;;;25.07;81.98;95320.50;5062515;28;20221;-61
2023/08/02 10:38:53;;;;;;;2.88;2.63;;;;;;;25.46;78.95;95312.78;5069905;28;20215;-60
2023/08/02 10:41:21;;;;;;;3.10;2.90;;;;;;;25.70;77.42;95314.72;5065652;28;20203;-59
2023/08/02 10:44:13;;;;;;;3.35;2.90;;;;;;;25.86;73.11;95304.72;5054944;28;20628;-59
2023/08/02 10:46:40;;;;;;;3.40;2.72;;;;;;;26.16;77.83;95303.88;5053218;28;20221;-59
2023/08/02 10:49:37;;;;;;;2.80;2.60;;;;;;;26.30;79.01;95291.41;5053180;28;20620;-59
2023/08/02 10:52:25;;;;;;;2.90;2.70;;;;;;;26.34;73.98;95288.97;5053718;28;20286;-59
2023/08/02 10:55:14;;;;;;;2.85;2.65;;;;;;;26.51;75.28;95294.88;5053791;28;20191;-59
2023/08/02 10:57:42;;;;;;;3.28;2.97;;;;;;;26.66;74.80;95290.25;5052837;28;20218;-61
2023/08/02 11:00:18;;;;;;;3.22;2.97;;;;;;;26.83;74.28;95289.94;5052370;28;20199;-61
2023/08/02 11:02:46;;;;;;;3.47;2.80;;;;;;;26.98;75.59;95286.34;5052899;28;20248;-62
2023/08/02 11:05:13;;;;;;;2.95;2.75;;;;;;;26.98;71.14;95286.34;5052842;28;20227;-59
2023/08/02 11:07:39;;;;;;;2.75;2.55;;;;;;;27.10;71.96;95279.47;5052938;28;20624;-59
2023/08/02 11:10:07;;;;;;;3.10;2.90;;;;;;;27.19;75.82;95277.00;5052111;28;20199;-61
2023/08/02 11:12:34;;;;;;;2.90;2.55;;;;;;;27.18;70.34;95269.94;5052609;28;20214;-68
2023/08/02 11:15:01;;;;;;;3.42;2.97;;;;;;;27.30;72.70;95275.03;5052908;28;20635;-60
2023/08/02 11:17:29;;;;;;;3.08;2.88;;;;;;;27.38;65.63;95272.56;5052069;28;20229;-61
2023/08/02 11:19:56;;;;;;;2.83;2.60;;;;;;;27.47;67.06;95259.22;5051865;28;20211;-61
2023/08/02 11:22:22;;;;;;;2.28;2.17;;;;;;;27.55;68.40;95254.00;5052570;28;20200;-60
2023/08/02 11:24:51;;;;;;;2.80;2.60;;;;;;;27.50;66.64;95237.72;5053051;28;20601;-61
2023/08/02 11:27:18;;;;;;;3.08;2.78;;;;;;;27.43;68.78;95237.22;5051461;28;20309;-61
2023/08/02 11:29:57;;;;;;;2.70;2.40;;;;;;;27.38;70.14;95244.59;5051747;28;20208;-61